Time;durP1;ratioP1;P1;durP2;ratioP2;P2;SDS_P1;SDS_P2;PMS_P1;PMS_P2;Temp;Humidity;BMP_temperature;BMP_pressure;BME280_temperature;BME280_humidity;BME280_pressure;Samples;Min_cycle;Max_cycle;Signal;HPM_P1;HPM_P2
2023/03/15 00:01:31;;;;;;;5.10;1.83;;;1.70;99.90;;;;;;5019656;28;20453;-47
2023/03/15 00:03:57;;;;;;;6.07;1.77;;;1.70;99.90;;;;;;5019935;28;20210;-47
2023/03/15 00:06:22;;;;;;;7.83;2.03;;;1.70;99.90;;;;;;5020682;28;20665;-47
2023/03/15 00:08:48;;;;;;;4.80;1.40;;;1.70;99.90;;;;;;5016084;28;20237;-47
2023/03/15 00:11:15;;;;;;;11.70;1.87;;;1.70;1.00;;;;;;5017696;28;20185;-47
2023/03/15 00:13:42;;;;;;;4.80;1.60;;;1.60;1.00;;;;;;5017050;28;20195;-47
2023/03/15 00:16:08;;;;;;;5.90;1.70;;;1.60;1.00;;;;;;5015869;28;20439;-48
2023/03/15 00:18:33;;;;;;;5.50;2.03;;;1.60;1.00;;;;;;5022893;28;20497;-48
2023/03/15 00:20:59;;;;;;;7.43;2.00;;;1.50;1.00;;;;;;5019769;28;20188;-47
2023/03/15 00:23:24;;;;;;;4.63;1.87;;;1.50;89.10;;;;;;5019150;28;20198;-47
2023/03/15 00:25:51;;;;;;;11.57;2.00;;;1.50;99.90;;;;;;5019898;28;20664;-47
2023/03/15 00:28:17;;;;;;;1.67;1.30;;;1.40;99.90;;;;;;5021235;28;20207;-47
2023/03/15 00:30:43;;;;;;;5.50;1.87;;;1.50;1.00;;;;;;5024636;28;20949;-47
2023/03/15 00:33:12;;;;;;;2.80;1.53;;;1.50;1.00;;;;;;5018897;28;20179;-47
2023/03/15 00:35:40;;;;;;;3.23;1.50;;;1.40;1.00;;;;;;5022723;28;20453;-47
2023/03/15 00:38:07;;;;;;;12.50;2.00;;;1.40;79.90;;;;;;5019046;28;20465;-47
2023/03/15 00:40:32;;;;;;;3.67;1.70;;;1.40;99.90;;;;;;5018975;28;20494;-46
2023/03/15 00:42:58;;;;;;;4.50;1.53;;;1.40;1.00;;;;;;5023076;28;20449;-47
2023/03/15 00:45:24;;;;;;;8.10;2.20;;;1.40;1.00;;;;;;5018470;28;20329;-47
2023/03/15 00:47:51;;;;;;;6.53;1.60;;;1.40;1.00;;;;;;5022953;28;20634;-48
2023/03/15 00:50:17;;;;;;;5.17;1.50;;;1.30;1.00;;;;;;5019486;28;20180;-47
2023/03/15 00:52:43;;;;;;;9.27;2.00;;;1.30;1.00;;;;;;5018446;28;20449;-47
2023/03/15 00:55:14;;;;;;;7.90;2.30;;;1.30;47.80;;;;;;5022657;28;20786;-47
2023/03/15 00:57:41;;;;;;;4.40;2.07;;;1.40;99.90;;;;;;5021892;28;20192;-48
2023/03/15 01:00:13;;;;;;;6.33;2.33;;;1.40;99.90;;;;;;5019228;28;20442;-47
2023/03/15 01:02:39;;;;;;;7.63;2.20;;;1.40;99.90;;;;;;5019294;28;20566;-47
2023/03/15 01:05:06;;;;;;;9.70;2.37;;;1.40;99.90;;;;;;5018478;28;20496;-47
2023/03/15 01:07:32;;;;;;;6.00;2.40;;;1.50;92.80;;;;;;5018313;28;20478;-47
2023/03/15 01:09:58;;;;;;;4.20;2.30;;;1.50;1.00;;;;;;5022169;28;20968;-47
2023/03/15 01:12:24;;;;;;;9.33;2.60;;;1.40;1.00;;;;;;5018712;28;20242;-47
2023/03/15 01:14:49;;;;;;;11.60;2.97;;;1.50;1.00;;;;;;5018655;28;20528;-47
2023/03/15 01:17:15;;;;;;;9.90;3.17;;;1.50;1.00;;;;;;5017937;28;20198;-47
2023/03/15 01:19:41;;;;;;;8.00;2.87;;;1.50;1.00;;;;;;5018457;28;20180;-47
2023/03/15 01:22:06;;;;;;;7.57;2.60;;;1.40;1.00;;;;;;5018116;28;20222;-47
2023/03/15 01:24:32;;;;;;;5.67;2.60;;;1.50;1.00;;;;;;5017799;28;20679;-48
2023/03/15 01:26:57;;;;;;;5.20;2.47;;;1.40;1.00;;;;;;5018310;28;20191;-47
2023/03/15 01:29:23;;;;;;;5.10;2.33;;;1.40;21.90;;;;;;5017920;28;20228;-48
2023/03/15 01:31:48;;;;;;;4.83;2.93;;;1.50;99.90;;;;;;5017775;28;20193;-48
2023/03/15 01:34:14;;;;;;;7.90;3.00;;;1.40;1.00;;;;;;5018433;28;20184;-47
2023/03/15 01:36:40;;;;;;;10.03;2.77;;;1.40;99.90;;;;;;5018145;28;20663;-47
2023/03/15 01:39:05;;;;;;;7.97;2.77;;;1.40;1.00;;;;;;5017557;28;20215;-47
2023/03/15 01:41:31;;;;;;;6.10;3.03;;;1.40;99.90;;;;;;5018208;28;20198;-47
2023/03/15 01:43:56;;;;;;;6.37;3.20;;;1.40;23.40;;;;;;5017278;28;20196;-46
2023/03/15 01:46:26;;;;;;;10.10;3.30;;;1.40;1.00;;;;;;5017925;28;20310;-47
2023/03/15 01:48:57;;;;;;;4.43;3.60;;;1.40;99.90;;;;;;5021922;28;20268;-47
2023/03/15 01:51:49;;;;;;;7.77;4.40;;;1.40;94.60;;;;;;5018375;28;20435;-47
2023/03/15 01:54:21;;;;;;;9.07;3.83;;;1.30;99.90;;;;;;5018523;28;20510;-47
2023/03/15 01:57:17;;;;;;;7.30;3.60;;;1.30;99.90;;;;;;5021647;28;20451;-48
2023/03/15 01:59:49;;;;;;;7.43;3.60;;;1.40;1.00;;;;;;5016991;28;20454;-48
2023/03/15 02:02:15;;;;;;;6.60;4.03;;;1.30;1.00;;;;;;5017820;28;20454;-47
2023/03/15 02:04:48;;;;;;;4.30;3.37;;;1.40;94.90;;;;;;5017123;28;21538;-47
2023/03/15 02:07:16;;;;;;;8.10;4.00;;;1.40;99.90;;;;;;5017493;28;20471;-47
2023/03/15 02:09:57;;;;;;;4.57;2.93;;;1.30;99.90;;;;;;5017686;28;20470;-47
2023/03/15 02:12:22;;;;;;;6.13;3.57;;;1.30;99.90;;;;;;5018968;28;20668;-47
2023/03/15 02:14:50;;;;;;;5.60;2.87;;;1.40;99.90;;;;;;5021635;28;20522;-47
2023/03/15 02:17:18;;;;;;;9.73;3.27;;;1.40;99.90;;;;;;5017681;28;20190;-47
2023/03/15 02:20:11;;;;;;;3.80;2.87;;;1.40;1.00;;;;;;5017678;28;20435;-47
2023/03/15 02:22:53;;;;;;;4.10;2.90;;;1.40;1.00;;;;;;5017956;28;20787;-46
2023/03/15 02:25:24;;;;;;;6.83;3.07;;;1.40;1.00;;;;;;5017101;28;20465;-47
2023/03/15 02:27:50;;;;;;;5.53;3.13;;;1.40;1.00;;;;;;5020472;28;20513;-47
2023/03/15 02:30:16;;;;;;;5.40;3.33;;;1.40;1.00;;;;;;5020917;28;20451;-47
2023/03/15 02:32:42;;;;;;;6.00;3.70;;;1.40;1.00;;;;;;5017215;28;20453;-47
2023/03/15 02:35:08;;;;;;;7.20;3.73;;;1.40;1.00;;;;;;5016548;28;20434;-47
2023/03/15 02:37:33;;;;;;;7.80;3.77;;;1.50;1.00;;;;;;5017022;28;20192;-47
2023/03/15 02:39:59;;;;;;;5.57;3.17;;;1.50;1.00;;;;;;5016384;28;20191;-47
2023/03/15 02:42:25;;;;;;;8.30;3.30;;;1.50;1.00;;;;;;5016487;28;20194;-47
2023/03/15 02:44:53;;;;;;;8.80;3.07;;;1.50;99.90;;;;;;5016394;28;20323;-47
2023/03/15 02:47:26;;;;;;;7.50;3.33;;;1.50;99.90;;;;;;5017567;28;20472;-47
2023/03/15 02:49:52;;;;;;;6.00;2.90;;;1.50;99.90;;;;;;5016686;28;20447;-47
2023/03/15 02:52:19;;;;;;;6.73;3.23;;;1.50;99.90;;;;;;5020371;28;20541;-47
2023/03/15 02:54:44;;;;;;;5.13;3.23;;;1.50;99.90;;;;;;5016326;28;20450;-48
2023/03/15 02:57:12;;;;;;;7.57;3.83;;;1.40;24.10;;;;;;5016736;28;20525;-47
2023/03/15 02:59:38;;;;;;;6.13;3.40;;;1.50;1.00;;;;;;5017483;28;20676;-47
2023/03/15 03:02:04;;;;;;;7.80;3.80;;;1.50;1.00;;;;;;5017085;28;20453;-47
2023/03/15 03:04:29;;;;;;;4.53;3.37;;;1.50;1.00;;;;;;5020043;28;20438;-47
2023/03/15 03:06:55;;;;;;;8.87;3.90;;;1.50;99.90;;;;;;5023997;28;20186;-47
2023/03/15 03:09:22;;;;;;;7.27;2.93;;;1.50;99.90;;;;;;5016438;28;20237;-47
2023/03/15 03:11:48;;;;;;;10.13;3.50;;;1.50;1.00;;;;;;5016405;28;20191;-47
2023/03/15 03:14:13;;;;;;;7.63;3.33;;;1.60;1.00;;;;;;5015712;28;20438;-47
2023/03/15 03:16:41;;;;;;;6.77;3.40;;;1.60;1.00;;;;;;5016747;28;20192;-47
2023/03/15 03:19:07;;;;;;;6.00;3.77;;;1.50;72.20;;;;;;5016787;28;20196;-48
2023/03/15 03:21:32;;;;;;;6.00;3.50;;;1.50;1.00;;;;;;5016221;28;20443;-47
2023/03/15 03:23:58;;;;;;;4.20;3.23;;;1.50;1.00;;;;;;5016778;28;20501;-47
2023/03/15 03:26:26;;;;;;;7.27;3.40;;;1.50;99.90;;;;;;5015687;28;20194;-47
2023/03/15 03:28:53;;;;;;;9.90;3.20;;;1.50;1.00;;;;;;5016012;28;20686;-47
2023/03/15 03:31:22;;;;;;;6.40;3.13;;;1.50;1.00;;;;;;5015618;28;20795;-47
2023/03/15 03:33:48;;;;;;;4.53;3.17;;;1.50;99.90;;;;;;5016143;28;20439;-47
2023/03/15 03:36:14;;;;;;;7.80;3.67;;;1.60;99.90;;;;;;5016495;28;20442;-47
2023/03/15 03:38:41;;;;;;;6.67;3.40;;;1.60;99.90;;;;;;5015665;28;20218;-47
2023/03/15 03:41:08;;;;;;;9.63;3.80;;;1.50;99.90;;;;;;5016386;28;20445;-48
2023/03/15 03:43:34;;;;;;;8.70;3.53;;;1.40;99.90;;;;;;5016188;28;20454;-47
2023/03/15 03:45:59;;;;;;;5.33;3.03;;;1.30;99.90;;;;;;5016204;28;20478;-47
2023/03/15 03:48:25;;;;;;;4.60;2.97;;;1.40;1.00;;;;;;5015826;28;20482;-47
2023/03/15 03:50:51;;;;;;;4.33;2.83;;;1.30;1.00;;;;;;5016299;28;20180;-47
2023/03/15 03:53:16;;;;;;;4.80;2.90;;;1.20;99.90;;;;;;5018878;28;20278;-46
2023/03/15 03:55:42;;;;;;;3.67;2.33;;;1.10;99.90;;;;;;5019600;28;20199;-46
2023/03/15 03:58:08;;;;;;;2.40;2.13;;;1.00;1.00;;;;;;5020123;28;20194;-46
2023/03/15 04:00:34;;;;;;;4.47;2.00;;;1.00;1.00;;;;;;5019296;28;20640;-46
2023/03/15 04:03:00;;;;;;;6.37;2.50;;;0.90;1.00;;;;;;5019564;28;20441;-46
2023/03/15 04:05:27;;;;;;;2.10;1.80;;;0.90;30.00;;;;;;5019850;28;20578;-46
2023/03/15 04:07:53;;;;;;;3.50;2.23;;;0.90;99.90;;;;;;5020090;28;20490;-47
2023/03/15 04:10:18;;;;;;;3.33;2.20;;;0.90;99.90;;;;;;5019744;28;20482;-46
2023/03/15 04:12:44;;;;;;;2.80;2.33;;;0.90;1.00;;;;;;5019577;28;20270;-46
2023/03/15 04:15:11;;;;;;;3.00;2.23;;;1.00;1.00;;;;;;5020004;28;20203;-46
2023/03/15 04:17:38;;;;;;;5.30;2.73;;;0.90;1.00;;;;;;5019126;28;20602;-47
2023/03/15 04:20:10;;;;;;;2.87;2.07;;;0.90;1.00;;;;;;5019623;28;23792;-47
2023/03/15 04:22:36;;;;;;;5.73;2.03;;;0.90;1.00;;;;;;5026259;28;20799;-46
2023/03/15 04:25:02;;;;;;;3.77;2.57;;;1.00;1.00;;;;;;5020290;28;20445;-46
2023/03/15 04:27:28;;;;;;;5.60;2.70;;;0.90;1.00;;;;;;5019456;28;20242;-46
2023/03/15 04:29:54;;;;;;;3.70;2.77;;;0.90;1.00;;;;;;5019092;28;20191;-46
2023/03/15 04:32:19;;;;;;;3.60;2.57;;;0.90;1.00;;;;;;5019547;28;20946;-46
2023/03/15 04:34:50;;;;;;;3.60;2.73;;;0.90;1.00;;;;;;5019117;28;20192;-46
2023/03/15 04:37:18;;;;;;;4.90;3.03;;;0.90;1.00;;;;;;5019480;28;20199;-46
2023/03/15 04:39:44;;;;;;;4.63;3.30;;;0.90;1.00;;;;;;5019226;28;20536;-46
2023/03/15 04:42:10;;;;;;;5.87;4.17;;;0.90;1.00;;;;;;5018857;28;20559;-46
2023/03/15 04:44:35;;;;;;;8.50;4.20;;;0.90;7.30;;;;;;5018975;28;20256;-46
2023/03/15 04:47:01;;;;;;;7.47;4.13;;;0.90;15.80;;;;;;5018250;28;20218;-46
2023/03/15 04:49:27;;;;;;;7.83;4.40;;;0.90;20.90;;;;;;5019532;28;20239;-46
2023/03/15 04:51:52;;;;;;;8.10;5.37;;;0.90;27.80;;;;;;5019074;28;20197;-46
2023/03/15 04:54:18;;;;;;;10.03;5.60;;;0.90;35.30;;;;;;5018588;28;20188;-47
2023/03/15 04:56:43;;;;;;;13.03;6.73;;;0.90;42.30;;;;;;5018982;28;20199;-46
2023/03/15 04:59:10;;;;;;;14.23;6.23;;;1.00;52.60;;;;;;5019308;28;20245;-47
2023/03/15 05:01:36;;;;;;;14.17;6.53;;;1.00;53.60;;;;;;5021416;28;20184;-46
2023/03/15 05:04:01;;;;;;;12.63;7.30;;;1.00;48.40;;;;;;5020912;28;20465;-47
2023/03/15 05:06:28;;;;;;;15.47;7.00;;;1.00;47.50;;;;;;5022916;28;20480;-46
2023/03/15 05:08:54;;;;;;;13.57;7.73;;;1.00;45.60;;;;;;5020844;28;20231;-46
2023/03/15 05:11:20;;;;;;;17.43;8.13;;;1.00;38.50;;;;;;5019536;28;20434;-46
2023/03/15 05:13:45;;;;;;;17.43;9.07;;;1.00;29.90;;;;;;5018440;28;20195;-46
2023/03/15 05:16:11;;;;;;;14.87;7.87;;;1.00;27.10;;;;;;5019294;28;20450;-46
2023/03/15 05:18:37;;;;;;;14.13;8.40;;;0.90;20.50;;;;;;5018567;28;20238;-46
2023/03/15 05:21:04;;;;;;;25.33;8.47;;;0.90;22.20;;;;;;5018149;28;20440;-46
2023/03/15 05:23:32;;;;;;;18.63;7.97;;;0.90;20.80;;;;;;5018496;28;20606;-46
2023/03/15 05:25:59;;;;;;;16.90;8.20;;;0.80;25.60;;;;;;5019650;28;20457;-46
2023/03/15 05:28:25;;;;;;;27.13;9.90;;;0.80;34.60;;;;;;5017835;28;20497;-46
2023/03/15 05:30:51;;;;;;;18.60;8.37;;;0.80;49.90;;;;;;5017382;28;20538;-46
2023/03/15 05:33:17;;;;;;;22.43;9.17;;;0.80;56.80;;;;;;5018506;28;20480;-47
2023/03/15 05:35:43;;;;;;;22.47;9.60;;;0.90;68.50;;;;;;5017991;28;20437;-46
2023/03/15 05:38:13;;;;;;;26.00;9.37;;;0.90;66.70;;;;;;5018189;28;20465;-46
2023/03/15 05:40:40;;;;;;;19.87;9.13;;;0.90;67.30;;;;;;5018142;28;20188;-46
2023/03/15 05:43:06;;;;;;;12.97;8.30;;;0.80;62.70;;;;;;5017374;28;20965;-46
2023/03/15 05:45:31;;;;;;;24.07;8.87;;;0.80;63.00;;;;;;5021368;28;20487;-46
2023/03/15 05:47:57;;;;;;;16.57;8.80;;;0.90;74.10;;;;;;5017709;28;20235;-46
2023/03/15 05:50:22;;;;;;;14.80;8.07;;;0.90;75.40;;;;;;5017878;28;20195;-47
2023/03/15 05:52:50;;;;;;;22.57;9.50;;;0.80;78.80;;;;;;5017857;28;20260;-46
2023/03/15 05:55:16;;;;;;;18.70;9.23;;;0.90;83.80;;;;;;5017465;28;20199;-46
2023/03/15 05:57:42;;;;;;;19.50;8.60;;;0.80;89.10;;;;;;5018084;28;20430;-46
2023/03/15 06:00:09;;;;;;;15.27;8.50;;;0.90;94.70;;;;;;5032790;28;20933;-46
2023/03/15 06:02:34;;;;;;;22.77;8.70;;;0.90;96.00;;;;;;5034063;28;20200;-46
2023/03/15 06:05:00;;;;;;;21.73;9.70;;;1.00;98.90;;;;;;5017668;28;20415;-46
2023/03/15 06:07:26;;;;;;;19.60;8.57;;;0.90;98.10;;;;;;5014895;28;20204;-46
2023/03/15 06:09:52;;;;;;;24.13;9.43;;;0.90;99.90;;;;;;5015162;28;20267;-46
2023/03/15 06:12:18;;;;;;;23.93;8.50;;;1.00;99.90;;;;;;5014847;28;20861;-46
2023/03/15 06:14:44;;;;;;;18.03;8.37;;;1.00;99.90;;;;;;5014456;28;20194;-46
2023/03/15 06:17:10;;;;;;;18.77;8.60;;;1.00;99.90;;;;;;5014748;28;20415;-46
2023/03/15 06:19:36;;;;;;;21.37;8.30;;;1.00;98.10;;;;;;5015430;28;20423;-45
2023/03/15 06:22:02;;;;;;;17.57;8.63;;;1.10;94.90;;;;;;5015024;28;20202;-46
2023/03/15 06:24:28;;;;;;;17.83;8.83;;;1.10;92.30;;;;;;5014577;28;20514;-46
2023/03/15 06:26:53;;;;;;;23.90;10.63;;;1.10;81.10;;;;;;5013602;28;20415;-46
2023/03/15 06:29:20;;;;;;;25.13;11.27;;;1.20;77.60;;;;;;5014649;28;20220;-46
2023/03/15 06:31:48;;;;;;;23.90;10.77;;;1.20;57.40;;;;;;5014761;28;20237;-47
2023/03/15 06:34:14;;;;;;;20.73;9.93;;;1.30;55.10;;;;;;5014365;28;20504;-47
2023/03/15 06:36:41;;;;;;;23.23;10.70;;;1.40;48.60;;;;;;5022758;28;20543;-46
2023/03/15 06:39:07;;;;;;;17.93;9.93;;;1.50;27.70;;;;;;5021728;28;20467;-46
2023/03/15 06:41:33;;;;;;;19.27;9.90;;;1.70;8.40;;;;;;5020905;28;20449;-46
2023/03/15 06:43:59;;;;;;;14.80;8.60;;;1.80;1.00;;;;;;5021029;28;20450;-47
2023/03/15 06:46:24;;;;;;;23.30;8.00;;;1.90;1.00;;;;;;5018834;28;20186;-47
2023/03/15 06:48:50;;;;;;;19.50;7.90;;;2.00;1.00;;;;;;5019628;28;20486;-46
2023/03/15 06:51:16;;;;;;;13.20;7.60;;;2.10;1.00;;;;;;5019466;28;20190;-47
2023/03/15 06:53:41;;;;;;;14.17;7.23;;;2.20;1.00;;;;;;5024121;28;20188;-47
2023/03/15 06:56:07;;;;;;;15.73;7.47;;;2.20;1.00;;;;;;5017748;28;20188;-47
2023/03/15 06:58:32;;;;;;;13.73;7.57;;;2.20;1.00;;;;;;5016917;28;20662;-47
2023/03/15 07:00:58;;;;;;;13.93;7.27;;;2.40;1.00;;;;;;5016262;28;20196;-47
2023/03/15 07:03:24;;;;;;;17.90;8.40;;;2.40;99.90;;;;;;5016506;28;20593;-47
2023/03/15 07:05:52;;;;;;;17.03;7.87;;;2.60;99.90;;;;;;5016196;28;20187;-47
2023/03/15 07:08:22;;;;;;;13.47;7.50;;;2.70;99.90;;;;;;5016465;28;20223;-47
2023/03/15 07:10:49;;;;;;;10.83;6.10;;;2.80;99.90;;;;;;5019760;28;20528;-47
2023/03/15 07:13:15;;;;;;;12.10;6.73;;;2.70;99.90;;;;;;5020239;28;20896;-47
2023/03/15 07:15:41;;;;;;;19.20;6.20;;;2.70;1.00;;;;;;5020172;28;20485;-48
2023/03/15 07:18:06;;;;;;;15.33;5.97;;;2.70;1.00;;;;;;5023342;28;20481;-47
2023/03/15 07:20:32;;;;;;;12.10;5.63;;;2.50;1.00;;;;;;5021775;28;20209;-47
2023/03/15 07:22:58;;;;;;;13.57;6.17;;;2.30;1.00;;;;;;5016611;28;20188;-47
2023/03/15 07:25:24;;;;;;;12.30;5.43;;;2.10;1.00;;;;;;5021242;28;20442;-47
2023/03/15 07:27:51;;;;;;;8.03;5.40;;;1.90;99.90;;;;;;5019971;28;20714;-47
2023/03/15 07:30:17;;;;;;;8.67;4.70;;;1.80;99.90;;;;;;5024588;28;20541;-47
2023/03/15 07:32:43;;;;;;;16.97;4.93;;;1.70;99.90;;;;;;5020573;28;20455;-47
2023/03/15 07:35:09;;;;;;;7.00;3.70;;;1.60;99.90;;;;;;5020452;28;20537;-47
2023/03/15 07:37:35;;;;;;;9.47;3.97;;;1.60;1.00;;;;;;5024064;28;20528;-47
2023/03/15 07:40:08;;;;;;;5.20;4.07;;;1.60;1.00;;;;;;5020324;28;20594;-47
2023/03/15 07:42:38;;;;;;;8.77;5.10;;;1.60;1.00;;;;;;5020011;28;20226;-48
2023/03/15 07:45:05;;;;;;;7.53;4.37;;;1.60;1.00;;;;;;5021020;28;20525;-47
2023/03/15 07:47:31;;;;;;;9.17;3.83;;;1.70;1.00;;;;;;5020019;28;20478;-47
2023/03/15 07:49:57;;;;;;;7.13;4.10;;;1.80;1.00;;;;;;5025830;28;20532;-47
2023/03/15 07:52:23;;;;;;;8.87;3.60;;;1.80;1.00;;;;;;5021734;28;20532;-48
2023/03/15 07:54:48;;;;;;;7.77;4.17;;;1.90;1.00;;;;;;5027041;28;20188;-48
2023/03/15 07:57:14;;;;;;;10.20;4.70;;;1.90;1.00;;;;;;5024102;28;20441;-47
2023/03/15 07:59:39;;;;;;;5.70;4.37;;;1.90;1.00;;;;;;5020019;28;20646;-47
2023/03/15 08:02:06;;;;;;;7.80;4.70;;;2.00;1.00;;;;;;5019234;28;20182;-47
2023/03/15 08:04:31;;;;;;;9.47;4.90;;;2.20;1.00;;;;;;5023659;28;20257;-47
2023/03/15 08:06:57;;;;;;;4.90;3.60;;;2.90;1.00;;;;;;5027618;28;20495;-47
2023/03/15 08:09:23;;;;;;;5.53;3.97;;;4.00;1.00;;;;;;5020519;28;20704;-47
2023/03/15 08:11:49;;;;;;;3.67;3.07;;;5.10;99.90;;;;;;5019648;28;20198;-48
2023/03/15 08:14:15;;;;;;;5.73;3.37;;;6.10;1.00;;;;;;5020746;28;20502;-47
2023/03/15 08:16:41;;;;;;;9.17;3.90;;;7.10;51.50;;;;;;5021927;28;20441;-47
2023/03/15 08:19:06;;;;;;;5.00;3.57;;;8.00;1.00;;;;;;5019262;28;20201;-47
2023/03/15 08:21:32;;;;;;;4.43;2.43;;;8.60;1.00;;;;;;5019297;28;20255;-48
2023/03/15 08:23:59;;;;;;;4.10;2.90;;;8.90;1.00;;;;;;5019366;28;20213;-47
2023/03/15 08:26:25;;;;;;;5.40;3.07;;;8.70;1.00;;;;;;5023560;28;20441;-47
2023/03/15 08:28:50;;;;;;;4.57;2.67;;;8.50;1.00;;;;;;5023406;28;20486;-48
2023/03/15 08:31:16;;;;;;;4.13;2.07;;;8.30;1.00;;;;;;5025073;28;20452;-48
2023/03/15 08:33:42;;;;;;;3.87;1.70;;;8.00;1.00;;;;;;5020832;28;20273;-48
2023/03/15 08:36:08;;;;;;;4.93;2.10;;;7.70;1.00;;;;;;5025220;28;20529;-48
2023/03/15 08:38:33;;;;;;;2.53;1.93;;;7.30;1.00;;;;;;5023383;28;20245;-48
2023/03/15 08:40:59;;;;;;;3.17;1.77;;;7.30;1.00;;;;;;5022194;28;20191;-47
2023/03/15 08:43:24;;;;;;;4.03;1.90;;;7.40;1.00;;;;;;5022775;28;20213;-47
2023/03/15 08:45:50;;;;;;;4.17;1.63;;;7.20;1.00;;;;;;5019250;28;20230;-47
2023/03/15 08:48:16;;;;;;;3.90;2.20;;;7.50;1.00;;;;;;5021279;28;20252;-47
2023/03/15 08:50:42;;;;;;;5.33;2.53;;;7.80;1.00;;;;;;5019723;28;20469;-47
2023/03/15 08:53:09;;;;;;;5.43;2.37;;;7.80;1.00;;;;;;5023101;28;20245;-47
2023/03/15 08:55:36;;;;;;;7.67;2.70;;;7.70;1.00;;;;;;5019743;28;20456;-47
2023/03/15 08:58:03;;;;;;;5.63;2.00;;;7.70;1.00;;;;;;5018863;28;20765;-47
2023/03/15 09:00:29;;;;;;;6.23;2.00;;;7.90;1.00;;;;;;5018101;28;20527;-48
2023/03/15 09:02:55;;;;;;;4.67;2.37;;;7.90;1.00;;;;;;5018671;28;20503;-48
2023/03/15 09:05:23;;;;;;;6.63;2.23;;;8.10;1.00;;;;;;5025501;28;20499;-47
2023/03/15 09:07:51;;;;;;;8.43;2.60;;;8.30;1.00;;;;;;5023236;28;20480;-48
2023/03/15 09:10:17;;;;;;;6.80;2.20;;;7.70;1.00;;;;;;5022631;28;20460;-47
2023/03/15 09:12:49;;;;;;;5.23;1.90;;;6.70;1.00;;;;;;5024862;28;20964;-47
2023/03/15 09:15:15;;;;;;;3.53;1.70;;;5.60;1.00;;;;;;5023501;28;20444;-47
2023/03/15 09:17:41;;;;;;;4.90;1.47;;;4.70;1.00;;;;;;5022412;28;20809;-47
2023/03/15 09:20:17;;;;;;;4.90;1.03;;;3.70;1.00;;;;;;5023978;28;20448;-47
2023/03/15 09:22:49;;;;;;;3.97;1.23;;;3.20;9.50;;;;;;5019114;28;20525;-47
2023/03/15 09:25:14;;;;;;;2.23;1.20;;;3.10;99.90;;;;;;5018486;28;20454;-47
2023/03/15 09:27:40;;;;;;;2.93;1.67;;;3.00;99.90;;;;;;5019837;28;20478;-47
2023/03/15 09:30:06;;;;;;;4.37;1.60;;;3.00;99.90;;;;;;5019973;28;20191;-47
2023/03/15 09:32:35;;;;;;;2.87;1.60;;;3.00;1.00;;;;;;5018087;28;20195;-47
2023/03/15 09:35:04;;;;;;;16.10;2.40;;;3.10;1.00;;;;;;5018587;28;20844;-47
2023/03/15 09:37:30;;;;;;;2.33;2.00;;;3.40;1.00;;;;;;5018444;28;20542;-47
2023/03/15 09:39:56;;;;;;;4.10;2.03;;;3.80;1.00;;;;;;5017330;28;20557;-47
2023/03/15 09:42:30;;;;;;;7.43;2.03;;;4.30;99.90;;;;;;5026022;28;20448;-48
2023/03/15 09:45:01;;;;;;;6.00;2.03;;;4.80;99.90;;;;;;5025886;28;20733;-48
2023/03/15 09:47:44;;;;;;;14.13;1.87;;;5.20;99.90;;;;;;5025242;28;20522;-47
2023/03/15 09:50:23;;;;;;;5.07;1.60;;;5.40;10.40;;;;;;5019370;28;23851;-47
2023/03/15 09:53:18;;;;;;;7.33;1.63;;;5.40;1.00;;;;;;5018657;28;20921;-48
2023/03/15 09:55:47;;;;;;;5.47;1.90;;;5.60;1.00;;;;;;5018170;28;20549;-47
2023/03/15 09:58:18;;;;;;;7.07;1.70;;;6.10;1.00;;;;;;5021954;28;20469;-47
2023/03/15 10:00:51;;;;;;;5.67;1.60;;;6.10;1.00;;;;;;5017592;28;20441;-47
2023/03/15 10:03:45;;;;;;;4.90;1.50;;;5.90;1.00;;;;;;5018391;28;20468;-48
2023/03/15 10:06:25;;;;;;;12.70;1.90;;;5.30;1.00;;;;;;5018225;28;20456;-48
2023/03/15 10:08:55;;;;;;;12.77;1.97;;;4.80;1.00;;;;;;5017490;28;20487;-47
2023/03/15 10:11:38;;;;;;;6.67;1.40;;;4.20;1.00;;;;;;5017771;28;20861;-47
2023/03/15 10:14:22;;;;;;;5.40;1.40;;;3.80;11.40;;;;;;5020949;28;20493;-47
2023/03/15 10:16:50;;;;;;;6.47;1.67;;;3.50;94.80;;;;;;5016882;28;21017;-47
2023/03/15 10:19:31;;;;;;;8.60;1.93;;;3.40;99.90;;;;;;5021754;28;20446;-47
2023/03/15 10:22:01;;;;;;;6.50;1.60;;;3.40;99.90;;;;;;5021021;28;20830;-47
2023/03/15 10:24:36;;;;;;;6.43;1.40;;;3.30;1.00;;;;;;5020063;28;20504;-47
2023/03/15 10:27:18;;;;;;;14.70;2.73;;;3.40;1.00;;;;;;5020794;28;20607;-47
2023/03/15 10:29:45;;;;;;;4.93;1.73;;;3.90;99.90;;;;;;5017454;28;20983;-47
2023/03/15 10:32:17;;;;;;;8.37;1.60;;;4.90;64.40;;;;;;5024923;28;20487;-49
2023/03/15 10:34:50;;;;;;;15.37;1.97;;;5.50;99.90;;;;;;5020023;28;20461;-47
2023/03/15 10:37:15;;;;;;;11.13;1.97;;;6.00;99.90;;;;;;5017617;28;20465;-48
2023/03/15 10:39:45;;;;;;;3.50;1.67;;;6.10;15.80;;;;;;5023380;28;20438;-48
2023/03/15 10:42:24;;;;;;;2.77;1.30;;;6.20;3.60;;;;;;5017295;28;20647;-47
2023/03/15 10:44:49;;;;;;;4.30;1.20;;;6.10;1.00;;;;;;5015971;28;20475;-47
2023/03/15 10:47:19;;;;;;;2.77;1.00;;;5.40;1.00;;;;;;5016780;28;20437;-47
2023/03/15 10:49:45;;;;;;;1.17;0.90;;;5.20;1.00;;;;;;5017004;28;20198;-47
2023/03/15 10:52:35;;;;;;;8.20;1.00;;;5.50;1.00;;;;;;5016364;28;20925;-47
2023/03/15 10:55:05;;;;;;;1.93;1.10;;;5.40;1.00;;;;;;5020882;28;20199;-47
2023/03/15 10:57:38;;;;;;;2.17;0.90;;;5.50;1.00;;;;;;5020691;28;20587;-47
2023/03/15 11:00:28;;;;;;;3.07;0.80;;;6.10;1.00;;;;;;5023691;28;20461;-47
2023/03/15 11:03:22;;;;;;;1.47;0.77;;;6.70;1.00;;;;;;5018018;28;20565;-47
2023/03/15 11:05:50;;;;;;;2.60;0.80;;;7.60;1.00;;;;;;5017511;28;20937;-48
2023/03/15 11:08:19;;;;;;;1.43;0.90;;;8.00;1.00;;;;;;5019627;28;20480;-47
2023/03/15 11:10:46;;;;;;;5.80;0.80;;;8.70;1.00;;;;;;5015946;28;20913;-48
2023/03/15 11:13:22;;;;;;;2.27;0.93;;;9.30;1.00;;;;;;5016223;28;20823;-48
2023/03/15 11:16:03;;;;;;;3.67;1.23;;;10.10;1.00;;;;;;5016057;28;20544;-48
2023/03/15 11:18:56;;;;;;;2.53;1.00;;;10.50;1.00;;;;;;5021240;28;20488;-48
2023/03/15 11:21:29;;;;;;;4.67;0.90;;;10.00;1.00;;;;;;5011704;28;20519;-47
2023/03/15 11:23:55;;;;;;;3.13;0.90;;;8.90;1.00;;;;;;5016700;28;20452;-47
2023/03/15 11:26:24;;;;;;;4.33;1.53;;;8.70;1.00;;;;;;5015872;28;20452;-47
2023/03/15 11:28:57;;;;;;;4.57;1.20;;;8.10;1.00;;;;;;5015746;28;20510;-48
2023/03/15 11:31:26;;;;;;;7.13;1.10;;;7.50;1.00;;;;;;5016094;28;20444;-48
2023/03/15 11:34:05;;;;;;;6.33;1.20;;;7.30;1.00;;;;;;5021937;28;20444;-49
2023/03/15 11:36:33;;;;;;;2.00;1.10;;;7.20;1.00;;;;;;5017175;28;20480;-48
2023/03/15 11:39:01;;;;;;;5.20;1.20;;;7.30;1.00;;;;;;5024390;28;20471;-47
2023/03/15 11:41:54;;;;;;;2.70;1.17;;;7.20;1.00;;;;;;5023632;28;20437;-47
2023/03/15 11:44:28;;;;;;;4.30;1.00;;;6.90;1.00;;;;;;5019688;28;20484;-48
2023/03/15 11:47:07;;;;;;;4.83;1.30;;;6.50;1.00;;;;;;5021115;28;20449;-48
2023/03/15 11:49:39;;;;;;;3.23;1.20;;;5.90;1.00;;;;;;5016975;28;20482;-48
2023/03/15 11:52:06;;;;;;;2.33;1.00;;;5.50;1.00;;;;;;5019745;28;20524;-48
2023/03/15 11:54:32;;;;;;;3.73;0.90;;;4.90;1.00;;;;;;5015757;28;20445;-47
2023/03/15 11:57:06;;;;;;;5.97;1.03;;;4.60;1.00;;;;;;5020536;28;20533;-47
2023/03/15 11:59:38;;;;;;;4.00;0.87;;;4.30;1.00;;;;;;5016062;28;20674;-47
2023/03/15 12:02:11;;;;;;;3.73;1.07;;;4.20;1.00;;;;;;5015764;28;20956;-47
2023/03/15 12:04:39;;;;;;;3.43;1.23;;;4.10;1.00;;;;;;5016717;28;20457;-47
2023/03/15 12:07:11;;;;;;;4.13;1.20;;;4.00;1.00;;;;;;5016409;28;20445;-47
2023/03/15 12:09:40;;;;;;;3.20;1.10;;;4.00;1.00;;;;;;5018386;28;20457;-47
2023/03/15 12:12:23;;;;;;;4.40;1.47;;;4.00;1.00;;;;;;5020659;28;20511;-47
2023/03/15 12:15:04;;;;;;;3.67;1.47;;;4.20;1.00;;;;;;5027460;28;20946;-47
2023/03/15 12:17:38;;;;;;;4.57;1.10;;;5.60;1.00;;;;;;5023286;28;20883;-47
2023/03/15 12:20:18;;;;;;;3.20;1.37;;;7.40;1.00;;;;;;5024038;28;20560;-48
2023/03/15 12:22:51;;;;;;;4.80;1.40;;;9.30;1.00;;;;;;5019659;28;20504;-48
2023/03/15 12:25:30;;;;;;;3.93;1.20;;;9.90;1.00;;;;;;5024217;28;20440;-49
2023/03/15 12:27:57;;;;;;;5.97;1.50;;;9.50;1.00;;;;;;5019010;28;20476;-47
2023/03/15 12:30:32;;;;;;;6.47;1.40;;;8.80;1.00;;;;;;5018796;28;20457;-48
2023/03/15 12:32:58;;;;;;;4.53;1.30;;;8.10;1.00;;;;;;5018705;28;20459;-48
2023/03/15 12:35:38;;;;;;;2.60;1.17;;;7.40;1.00;;;;;;5019619;28;20436;-47
2023/03/15 12:38:20;;;;;;;3.23;0.90;;;6.60;1.00;;;;;;5023346;28;20790;-48
2023/03/15 12:40:54;;;;;;;5.97;1.17;;;6.00;1.00;;;;;;5019424;28;20535;-48
2023/03/15 12:43:44;;;;;;;1.93;1.00;;;5.60;1.00;;;;;;5020064;28;20596;-47
2023/03/15 12:46:38;;;;;;;4.67;1.00;;;5.70;1.00;;;;;;5019923;28;20516;-48
2023/03/15 12:49:27;;;;;;;3.53;1.13;;;6.40;1.00;;;;;;5010686;28;21343;-47
2023/03/15 12:52:16;;;;;;;4.57;1.30;;;6.80;1.00;;;;;;5016844;28;20497;-48
2023/03/15 12:54:59;;;;;;;6.47;0.93;;;7.70;1.00;;;;;;5020818;28;20945;-48
2023/03/15 12:57:29;;;;;;;3.97;1.20;;;8.90;1.00;;;;;;5018909;28;20459;-48
2023/03/15 13:00:10;;;;;;;4.03;1.10;;;9.30;1.00;;;;;;5018726;28;20450;-47
2023/03/15 13:03:15;;;;;;;3.60;1.10;;;9.80;1.00;;;;;;5026038;28;20442;-48
2023/03/15 13:06:02;;;;;;;6.27;1.40;;;10.10;1.00;;;;;;5001215;28;20544;-48
2023/03/15 13:08:43;;;;;;;4.87;1.57;;;10.60;1.00;;;;;;5018639;28;20843;-48
2023/03/15 13:11:10;;;;;;;4.03;1.20;;;10.70;1.00;;;;;;5018563;28;20452;-48